Terminal Aerodrome Forecast
Issued by NWS Sioux Falls, SD

Home | Current Version | Previous Version | Text Only | Print | Product List | Glossary Off
Versions: 1 2 3 4 5 6 7 8 9 10 11 12 13 14 15 16 17 18 19 20 21 22 23 24 25 26 27 28 29 30

726
FTUS43 KFSD 282320
TAFSUX
TAF
KSUX 282320Z 2900/2924 30013G19KT P6SM VCSH BKN030
     FM290100 29009KT P6SM SCT030 BKN060
     FM290600 24004KT P6SM SCT080
     FM291500 26006KT P6SM SCT060=

USA.gov is the U.S. government's official web portal to all federal, state and local government web resources and services.